sensor_id;sensor_type;location;lat;lon;timestamp;pressure;altitude;pressure_sealevel;temperature;humidity
13029;BME280;6581;42.662;23.402;2023-01-28T00:02:17;94697.66;;;0.39;100.00
13029;BME280;6581;42.662;23.402;2023-01-28T00:04:44;94706.69;;;0.51;100.00
13029;BME280;6581;42.662;23.402;2023-01-28T00:07:12;94713.00;;;0.50;100.00
13029;BME280;6581;42.662;23.402;2023-01-28T00:09:39;94715.44;;;0.55;100.00
13029;BME280;6581;42.662;23.402;2023-01-28T00:12:06;94724.19;;;0.67;100.00
13029;BME280;6581;42.662;23.402;2023-01-28T00:14:33;94724.47;;;0.66;100.00
13029;BME280;6581;42.662;23.402;2023-01-28T00:17:03;94727.41;;;0.73;100.00
13029;BME280;6581;42.662;23.402;2023-01-28T00:19:30;94734.00;;;0.62;100.00
13029;BME280;6581;42.662;23.402;2023-01-28T00:21:57;94733.84;;;0.67;100.00
13029;BME280;6581;42.662;23.402;2023-01-28T00:24:25;94730.31;;;0.63;100.00
13029;BME280;6581;42.662;23.402;2023-01-28T00:26:53;94735.53;;;0.71;100.00
13029;BME280;6581;42.662;23.402;2023-01-28T00:29:20;94737.66;;;0.61;100.00
13029;BME280;6581;42.662;23.402;2023-01-28T00:31:47;94737.97;;;0.59;100.00
13029;BME280;6581;42.662;23.402;2023-01-28T00:34:14;94742.25;;;0.55;100.00
13029;BME280;6581;42.662;23.402;2023-01-28T00:36:41;94746.09;;;0.58;100.00
13029;BME280;6581;42.662;23.402;2023-01-28T00:39:10;94739.81;;;0.59;100.00
13029;BME280;6581;42.662;23.402;2023-01-28T00:41:42;94746.88;;;0.58;100.00
13029;BME280;6581;42.662;23.402;2023-01-28T00:44:09;94743.63;;;0.70;100.00
13029;BME280;6581;42.662;23.402;2023-01-28T00:46:37;94753.28;;;0.69;100.00
13029;BME280;6581;42.662;23.402;2023-01-28T00:49:06;94754.06;;;0.78;100.00
13029;BME280;6581;42.662;23.402;2023-01-28T00:51:33;94751.47;;;0.70;100.00
13029;BME280;6581;42.662;23.402;2023-01-28T00:54:00;94754.38;;;0.60;100.00
13029;BME280;6581;42.662;23.402;2023-01-28T00:56:27;94750.25;;;0.50;100.00
13029;BME280;6581;42.662;23.402;2023-01-28T00:58:56;94752.22;;;0.53;100.00
13029;BME280;6581;42.662;23.402;2023-01-28T01:01:25;94755.59;;;0.62;100.00
13029;BME280;6581;42.662;23.402;2023-01-28T01:03:53;94753.44;;;0.64;100.00
13029;BME280;6581;42.662;23.402;2023-01-28T01:06:29;94749.00;;;0.73;100.00
13029;BME280;6581;42.662;23.402;2023-01-28T01:08:59;94758.53;;;0.86;100.00
13029;BME280;6581;42.662;23.402;2023-01-28T01:11:26;94762.81;;;0.82;100.00
13029;BME280;6581;42.662;23.402;2023-01-28T01:13:54;94758.81;;;0.85;100.00
13029;BME280;6581;42.662;23.402;2023-01-28T01:16:26;94759.44;;;0.82;100.00
13029;BME280;6581;42.662;23.402;2023-01-28T01:18:55;94758.66;;;0.81;100.00
13029;BME280;6581;42.662;23.402;2023-01-28T01:21:24;94762.97;;;0.86;100.00
13029;BME280;6581;42.662;23.402;2023-01-28T01:23:52;94768.94;;;0.86;100.00
13029;BME280;6581;42.662;23.402;2023-01-28T01:26:21;94768.78;;;0.83;100.00
13029;BME280;6581;42.662;23.402;2023-01-28T01:28:50;94764.81;;;0.85;100.00
13029;BME280;6581;42.662;23.402;2023-01-28T01:31:19;94759.59;;;0.85;100.00
13029;BME280;6581;42.662;23.402;2023-01-28T01:33:49;94759.91;;;0.67;100.00
13029;BME280;6581;42.662;23.402;2023-01-28T01:36:17;94765.72;;;0.72;100.00
13029;BME280;6581;42.662;23.402;2023-01-28T01:38:46;94763.72;;;0.61;100.00
13029;BME280;6581;42.662;23.402;2023-01-28T01:41:22;94770.19;;;0.63;100.00
13029;BME280;6581;42.662;23.402;2023-01-28T01:43:51;94765.41;;;0.57;100.00
13029;BME280;6581;42.662;23.402;2023-01-28T01:46:21;94763.88;;;0.56;100.00
13029;BME280;6581;42.662;23.402;2023-01-28T01:48:52;94769.25;;;0.59;100.00
13029;BME280;6581;42.662;23.402;2023-01-28T01:51:24;94763.88;;;0.56;100.00
13029;BME280;6581;42.662;23.402;2023-01-28T01:53:54;94761.75;;;0.58;100.00
13029;BME280;6581;42.662;23.402;2023-01-28T01:56:28;94766.63;;;0.51;100.00
13029;BME280;6581;42.662;23.402;2023-01-28T01:58:56;94767.72;;;0.58;100.00
13029;BME280;6581;42.662;23.402;2023-01-28T02:01:27;94770.63;;;0.39;100.00
13029;BME280;6581;42.662;23.402;2023-01-28T02:04:01;94773.22;;;0.48;100.00
13029;BME280;6581;42.662;23.402;2023-01-28T02:06:31;94780.28;;;0.48;100.00
13029;BME280;6581;42.662;23.402;2023-01-28T02:08:59;94784.88;;;0.42;100.00
13029;BME280;6581;42.662;23.402;2023-01-28T02:11:29;94781.97;;;0.43;100.00
13029;BME280;6581;42.662;23.402;2023-01-28T02:14:01;94784.09;;;0.41;100.00
13029;BME280;6581;42.662;23.402;2023-01-28T02:16:30;94777.66;;;0.48;100.00
13029;BME280;6581;42.662;23.402;2023-01-28T02:18:59;94782.44;;;0.46;100.00
13029;BME280;6581;42.662;23.402;2023-01-28T02:24:48;94791.59;;;0.43;100.00
13029;BME280;6581;42.662;23.402;2023-01-28T02:27:25;94790.84;;;0.51;100.00
13029;BME280;6581;42.662;23.402;2023-01-28T02:29:58;94790.41;;;0.40;100.00
13029;BME280;6581;42.662;23.402;2023-01-28T02:32:31;94787.66;;;0.46;100.00
13029;BME280;6581;42.662;23.402;2023-01-28T02:35:03;94787.78;;;0.40;100.00
13029;BME280;6581;42.662;23.402;2023-01-28T02:37:37;94791.47;;;0.48;100.00
13029;BME280;6581;42.662;23.402;2023-01-28T02:40:08;94787.19;;;0.52;100.00
13029;BME280;6581;42.662;23.402;2023-01-28T02:42:37;94798.97;;;0.41;100.00
13029;BME280;6581;42.662;23.402;2023-01-28T02:45:15;94798.06;;;0.46;100.00
13029;BME280;6581;42.662;23.402;2023-01-28T02:47:44;94798.22;;;0.40;100.00
13029;BME280;6581;42.662;23.402;2023-01-28T02:50:33;94797.59;;;0.43;100.00
13029;BME280;6581;42.662;23.402;2023-01-28T02:53:10;94793.31;;;0.48;100.00
13029;BME280;6581;42.662;23.402;2023-01-28T02:56:06;94792.84;;;0.46;100.00
13029;BME280;6581;42.662;23.402;2023-01-28T02:58:41;94797.44;;;0.40;100.00
13029;BME280;6581;42.662;23.402;2023-01-28T03:01:16;94788.84;;;0.39;100.00
13029;BME280;6581;42.662;23.402;2023-01-28T03:03:54;94799.72;;;0.41;100.00
13029;BME280;6581;42.662;23.402;2023-01-28T03:06:29;94802.78;;;0.35;100.00
13029;BME280;6581;42.662;23.402;2023-01-28T03:09:24;94790.84;;;0.51;100.00
13029;BME280;6581;42.662;23.402;2023-01-28T03:11:55;94795.91;;;0.48;100.00
13029;BME280;6581;42.662;23.402;2023-01-28T03:14:42;94797.75;;;0.47;100.00
13029;BME280;6581;42.662;23.402;2023-01-28T03:17:33;94803.41;;;0.32;100.00
13029;BME280;6581;42.662;23.402;2023-01-28T03:20:24;94803.84;;;0.34;100.00
13029;BME280;6581;42.662;23.402;2023-01-28T03:23:16;94799.72;;;0.33;100.00
13029;BME280;6581;42.662;23.402;2023-01-28T03:26:04;94802.03;;;0.43;100.00
13029;BME280;6581;42.662;23.402;2023-01-28T03:28:53;94808.50;;;0.46;100.00
13029;BME280;6581;42.662;23.402;2023-01-28T03:31:43;94809.09;;;0.42;100.00
13029;BME280;6581;42.662;23.402;2023-01-28T03:34:35;94812.03;;;0.50;100.00
13029;BME280;6581;42.662;23.402;2023-01-28T03:37:20;94815.69;;;0.49;100.00
13029;BME280;6581;42.662;23.402;2023-01-28T03:40:02;94811.66;;;0.25;100.00
13029;BME280;6581;42.662;23.402;2023-01-28T03:42:30;94806.72;;;0.15;100.00
13029;BME280;6581;42.662;23.402;2023-01-28T03:45:05;94808.13;;;0.21;100.00
13029;BME280;6581;42.662;23.402;2023-01-28T03:47:33;94807.66;;;0.28;100.00
13029;BME280;6581;42.662;23.402;2023-01-28T03:50:04;94805.19;;;0.14;100.00
13029;BME280;6581;42.662;23.402;2023-01-28T03:52:37;94812.59;;;0.29;100.00
13029;BME280;6581;42.662;23.402;2023-01-28T03:55:26;94804.47;;;0.22;100.00
13029;BME280;6581;42.662;23.402;2023-01-28T03:57:53;94808.56;;;0.15;100.00
13029;BME280;6581;42.662;23.402;2023-01-28T04:00:22;94810.09;;;0.16;100.00
13029;BME280;6581;42.662;23.402;2023-01-28T04:02:50;94818.41;;;0.26;100.00
13029;BME280;6581;42.662;23.402;2023-01-28T04:05:20;94813.78;;;0.23;100.00
13029;BME280;6581;42.662;23.402;2023-01-28T04:07:48;94829.25;;;0.20;100.00
13029;BME280;6581;42.662;23.402;2023-01-28T04:10:39;94820.50;;;0.07;100.00
13029;BME280;6581;42.662;23.402;2023-01-28T04:13:18;94821.88;;;0.05;100.00
13029;BME280;6581;42.662;23.402;2023-01-28T04:15:45;94825.84;;;0.02;100.00
13029;BME280;6581;42.662;23.402;2023-01-28T04:18:14;94831.03;;;-0.07;100.00
13029;BME280;6581;42.662;23.402;2023-01-28T04:20:43;94835.22;;;0.12;100.00
13029;BME280;6581;42.662;23.402;2023-01-28T04:23:10;94828.00;;;0.09;100.00
13029;BME280;6581;42.662;23.402;2023-01-28T04:25:37;94832.63;;;0.12;100.00
13029;BME280;6581;42.662;23.402;2023-01-28T04:28:06;94828.00;;;0.09;100.00
13029;BME280;6581;42.662;23.402;2023-01-28T04:30:33;94832.31;;;0.13;100.00
13029;BME280;6581;42.662;23.402;2023-01-28T04:33:21;94840.44;;;0.20;100.00
13029;BME280;6581;42.662;23.402;2023-01-28T04:35:58;94849.03;;;0.21;100.00
13029;BME280;6581;42.662;23.402;2023-01-28T04:38:43;94846.41;;;0.12;100.00
13029;BME280;6581;42.662;23.402;2023-01-28T04:41:27;94853.31;;;0.17;100.00
13029;BME280;6581;42.662;23.402;2023-01-28T04:44:02;94845.16;;;0.10;100.00
13029;BME280;6581;42.662;23.402;2023-01-28T04:46:54;94852.84;;;0.15;100.00
13029;BME280;6581;42.662;23.402;2023-01-28T04:49:42;94854.38;;;0.16;100.00
13029;BME280;6581;42.662;23.402;2023-01-28T04:52:22;94856.22;;;0.15;100.00
13029;BME280;6581;42.662;23.402;2023-01-28T04:55:15;94863.00;;;0.25;100.00
13029;BME280;6581;42.662;23.402;2023-01-28T04:57:42;94870.16;;;0.19;100.00
13029;BME280;6581;42.662;23.402;2023-01-28T05:00:10;94870.94;;;0.20;100.00
13029;BME280;6581;42.662;23.402;2023-01-28T05:02:37;94874.31;;;0.20;100.00
13029;BME280;6581;42.662;23.402;2023-01-28T05:05:05;94867.91;;;0.26;100.00
13029;BME280;6581;42.662;23.402;2023-01-28T05:07:55;94865.31;;;0.26;100.00
13029;BME280;6581;42.662;23.402;2023-01-28T05:10:23;94880.28;;;0.21;100.00
13029;BME280;6581;42.662;23.402;2023-01-28T05:12:52;94883.66;;;0.21;100.00
13029;BME280;6581;42.662;23.402;2023-01-28T05:15:19;94883.50;;;0.18;100.00
13029;BME280;6581;42.662;23.402;2023-01-28T05:17:47;94882.16;;;0.29;100.00
13029;BME280;6581;42.662;23.402;2023-01-28T05:20:17;94872.78;;;0.28;100.00
13029;BME280;6581;42.662;23.402;2023-01-28T05:22:46;94879.66;;;0.15;100.00
13029;BME280;6581;42.662;23.402;2023-01-28T05:25:21;94899.84;;;0.10;100.00
13029;BME280;6581;42.662;23.402;2023-01-28T05:27:49;94888.81;;;0.04;100.00
13029;BME280;6581;42.662;23.402;2023-01-28T05:30:17;94890.31;;;0.05;100.00
13029;BME280;6581;42.662;23.402;2023-01-28T05:32:44;94886.34;;;-0.01;100.00
13029;BME280;6581;42.662;23.402;2023-01-28T05:35:14;94892.56;;;-0.11;100.00
13029;BME280;6581;42.662;23.402;2023-01-28T05:37:41;94891.63;;;-0.15;100.00
13029;BME280;6581;42.662;23.402;2023-01-28T05:40:09;94897.63;;;-0.14;100.00
13029;BME280;6581;42.662;23.402;2023-01-28T05:42:38;94889.81;;;-0.14;100.00
13029;BME280;6581;42.662;23.402;2023-01-28T05:45:20;94901.56;;;-0.17;100.00
13029;BME280;6581;42.662;23.402;2023-01-28T05:48:09;94907.53;;;-0.16;100.00
13029;BME280;6581;42.662;23.402;2023-01-28T05:50:46;94901.59;;;-0.08;100.00
13029;BME280;6581;42.662;23.402;2023-01-28T05:53:17;94900.72;;;-0.04;100.00
13029;BME280;6581;42.662;23.402;2023-01-28T05:55:49;94904.38;;;-0.05;100.00
13029;BME280;6581;42.662;23.402;2023-01-28T05:58:41;94908.06;;;-0.06;100.00
13029;BME280;6581;42.662;23.402;2023-01-28T06:01:08;94916.19;;;0.02;100.00
13029;BME280;6581;42.662;23.402;2023-01-28T06:03:45;94924.09;;;-0.12;100.00
13029;BME280;6581;42.662;23.402;2023-01-28T06:06:13;94924.75;;;-0.07;100.00
13029;BME280;6581;42.662;23.402;2023-01-28T06:08:40;94925.56;;;0.03;100.00
13029;BME280;6581;42.662;23.402;2023-01-28T06:11:08;94933.09;;;0.04;100.00
13029;BME280;6581;42.662;23.402;2023-01-28T06:13:36;94935.50;;;0.00;100.00
13029;BME280;6581;42.662;23.402;2023-01-28T06:16:25;94937.34;;;0.00;100.00
13029;BME280;6581;42.662;23.402;2023-01-28T06:19:18;94944.84;;;0.02;100.00
13029;BME280;6581;42.662;23.402;2023-01-28T06:22:10;94945.47;;;-0.02;100.00
13029;BME280;6581;42.662;23.402;2023-01-28T06:24:37;94945.16;;;0.00;100.00
13029;BME280;6581;42.662;23.402;2023-01-28T06:27:05;94950.06;;;0.02;100.00
13029;BME280;6581;42.662;23.402;2023-01-28T06:29:32;94947.81;;;0.09;100.00
13029;BME280;6581;42.662;23.402;2023-01-28T06:32:00;94964.00;;;0.06;100.00
13029;BME280;6581;42.662;23.402;2023-01-28T06:34:27;94962.34;;;0.10;100.00
13029;BME280;6581;42.662;23.402;2023-01-28T06:36:54;94965.28;;;0.08;100.00
13029;BME280;6581;42.662;23.402;2023-01-28T06:39:22;94972.91;;;0.05;100.00
13029;BME280;6581;42.662;23.402;2023-01-28T06:41:51;94962.22;;;0.15;100.00
13029;BME280;6581;42.662;23.402;2023-01-28T06:44:19;94970.22;;;0.18;100.00
13029;BME280;6581;42.662;23.402;2023-01-28T06:46:47;94978.75;;;0.10;100.00
13029;BME280;6581;42.662;23.402;2023-01-28T06:49:15;94976.72;;;0.29;100.00
13029;BME280;6581;42.662;23.402;2023-01-28T06:51:42;94982.38;;;0.23;100.00
13029;BME280;6581;42.662;23.402;2023-01-28T06:54:09;94976.78;;;0.16;100.00
13029;BME280;6581;42.662;23.402;2023-01-28T06:56:36;94975.09;;;0.11;100.00
13029;BME280;6581;42.662;23.402;2023-01-28T06:59:03;94985.16;;;0.04;100.00
13029;BME280;6581;42.662;23.402;2023-01-28T07:01:32;94982.47;;;0.18;100.00
13029;BME280;6581;42.662;23.402;2023-01-28T07:03:59;94996.22;;;0.10;100.00
13029;BME280;6581;42.662;23.402;2023-01-28T07:06:27;94992.84;;;0.09;100.00
13029;BME280;6581;42.662;23.402;2023-01-28T07:08:54;95002.97;;;0.11;100.00
13029;BME280;6581;42.662;23.402;2023-01-28T07:11:21;95006.78;;;0.05;100.00
13029;BME280;6581;42.662;23.402;2023-01-28T07:13:48;95011.97;;;0.05;100.00
13029;BME280;6581;42.662;23.402;2023-01-28T07:16:15;95018.25;;;0.04;100.00
13029;BME280;6581;42.662;23.402;2023-01-28T07:18:42;95013.63;;;0.00;100.00
13029;BME280;6581;42.662;23.402;2023-01-28T07:21:09;95023.78;;;0.11;100.00
13029;BME280;6581;42.662;23.402;2023-01-28T07:23:38;95017.53;;;0.12;100.00
13029;BME280;6581;42.662;23.402;2023-01-28T07:26:08;95020.31;;;0.15;100.00
13029;BME280;6581;42.662;23.402;2023-01-28T07:28:35;95026.50;;;0.28;100.00
13029;BME280;6581;42.662;23.402;2023-01-28T07:31:04;95033.84;;;0.26;100.00
13029;BME280;6581;42.662;23.402;2023-01-28T07:33:31;95039.53;;;0.28;100.00
13029;BME280;6581;42.662;23.402;2023-01-28T07:35:59;95034.78;;;0.30;100.00
13029;BME280;6581;42.662;23.402;2023-01-28T07:38:26;95042.94;;;0.37;100.00
13029;BME280;6581;42.662;23.402;2023-01-28T07:40:54;95037.56;;;0.33;100.00
13029;BME280;6581;42.662;23.402;2023-01-28T07:43:25;95037.03;;;0.45;100.00
13029;BME280;6581;42.662;23.402;2023-01-28T07:45:52;95046.72;;;0.53;100.00
13029;BME280;6581;42.662;23.402;2023-01-28T07:48:18;95049.56;;;0.43;100.00
13029;BME280;6581;42.662;23.402;2023-01-28T07:50:45;95052.88;;;0.26;100.00
13029;BME280;6581;42.662;23.402;2023-01-28T07:53:14;95048.81;;;0.42;100.00
13029;BME280;6581;42.662;23.402;2023-01-28T07:55:42;95056.06;;;0.46;100.00
13029;BME280;6581;42.662;23.402;2023-01-28T07:58:11;95050.31;;;0.35;100.00
13029;BME280;6581;42.662;23.402;2023-01-28T08:00:38;95063.78;;;0.37;100.00
13029;BME280;6581;42.662;23.402;2023-01-28T08:03:13;95056.34;;;0.44;100.00
13029;BME280;6581;42.662;23.402;2023-01-28T08:05:43;95053.38;;;0.37;100.00
13029;BME280;6581;42.662;23.402;2023-01-28T08:08:11;95060.44;;;0.36;100.00
13029;BME280;6581;42.662;23.402;2023-01-28T08:10:39;95064.69;;;0.32;100.00
13029;BME280;6581;42.662;23.402;2023-01-28T08:13:06;95064.88;;;0.36;100.00
13029;BME280;6581;42.662;23.402;2023-01-28T08:15:34;95073.16;;;0.38;100.00
13029;BME280;6581;42.662;23.402;2023-01-28T08:18:02;95064.28;;;0.39;100.00
13029;BME280;6581;42.662;23.402;2023-01-28T08:20:30;95068.09;;;0.41;100.00
13029;BME280;6581;42.662;23.402;2023-01-28T08:23:07;95077.19;;;0.44;100.00
13029;BME280;6581;42.662;23.402;2023-01-28T08:25:35;95072.56;;;0.41;100.00
13029;BME280;6581;42.662;23.402;2023-01-28T08:28:03;95067.69;;;0.48;100.00
13029;BME280;6581;42.662;23.402;2023-01-28T08:30:31;95071.25;;;0.52;100.00
13029;BME280;6581;42.662;23.402;2023-01-28T08:33:00;95076.34;;;0.57;100.00
13029;BME280;6581;42.662;23.402;2023-01-28T08:35:27;95069.13;;;0.54;100.00
13029;BME280;6581;42.662;23.402;2023-01-28T08:38:18;95076.94;;;0.54;100.00
13029;BME280;6581;42.662;23.402;2023-01-28T08:40:46;95078.94;;;0.57;100.00
13029;BME280;6581;42.662;23.402;2023-01-28T08:43:15;95070.44;;;0.43;100.00
13029;BME280;6581;42.662;23.402;2023-01-28T08:45:42;95070.53;;;0.38;100.00
13029;BME280;6581;42.662;23.402;2023-01-28T08:48:14;95076.16;;;0.54;100.00
13029;BME280;6581;42.662;23.402;2023-01-28T08:50:42;95077.84;;;0.80;100.00
13029;BME280;6581;42.662;23.402;2023-01-28T08:53:11;95075.50;;;0.79;100.00
13029;BME280;6581;42.662;23.402;2023-01-28T08:55:38;95092.84;;;0.75;100.00
13029;BME280;6581;42.662;23.402;2023-01-28T08:58:09;95086.25;;;0.77;100.00
13029;BME280;6581;42.662;23.402;2023-01-28T09:00:37;95085.06;;;0.92;100.00
13029;BME280;6581;42.662;23.402;2023-01-28T09:03:05;95077.13;;;0.97;100.00
13029;BME280;6581;42.662;23.402;2023-01-28T09:05:34;95082.38;;;1.06;100.00
13029;BME280;6581;42.662;23.402;2023-01-28T09:08:02;95088.16;;;0.94;100.00
13029;BME280;6581;42.662;23.402;2023-01-28T09:10:29;95093.53;;;0.98;100.00
13029;BME280;6581;42.662;23.402;2023-01-28T09:12:56;95091.69;;;0.89;100.00
13029;BME280;6581;42.662;23.402;2023-01-28T09:15:23;95086.69;;;1.10;100.00
13029;BME280;6581;42.662;23.402;2023-01-28T09:17:56;95092.66;;;1.11;100.00
13029;BME280;6581;42.662;23.402;2023-01-28T09:20:24;95090.09;;;1.19;100.00
13029;BME280;6581;42.662;23.402;2023-01-28T09:22:52;95094.59;;;1.36;100.00
13029;BME280;6581;42.662;23.402;2023-01-28T09:25:19;95092.13;;;1.31;100.00
13029;BME280;6581;42.662;23.402;2023-01-28T09:27:46;95100.75;;;1.31;100.00
13029;BME280;6581;42.662;23.402;2023-01-28T09:30:14;95086.78;;;1.36;100.00
13029;BME280;6581;42.662;23.402;2023-01-28T09:32:41;95087.41;;;1.42;100.00
13029;BME280;6581;42.662;23.402;2023-01-28T09:35:08;95089.53;;;1.40;100.00
13029;BME280;6581;42.662;23.402;2023-01-28T09:37:36;95086.66;;;1.58;100.00
13029;BME280;6581;42.662;23.402;2023-01-28T09:40:06;95089.13;;;1.63;100.00
13029;BME280;6581;42.662;23.402;2023-01-28T09:42:43;95096.94;;;1.46;100.00
13029;BME280;6581;42.662;23.402;2023-01-28T09:45:19;95086.00;;;1.27;100.00
13029;BME280;6581;42.662;23.402;2023-01-28T09:47:51;95093.78;;;1.18;100.00
13029;BME280;6581;42.662;23.402;2023-01-28T09:50:22;95088.72;;;1.22;100.00
13029;BME280;6581;42.662;23.402;2023-01-28T09:52:51;95090.06;;;1.11;100.00
13029;BME280;6581;42.662;23.402;2023-01-28T09:55:46;95084.00;;;1.32;100.00
13029;BME280;6581;42.662;23.402;2023-01-28T09:58:15;95081.41;;;1.32;100.00
13029;BME280;6581;42.662;23.402;2023-01-28T10:00:49;95087.38;;;1.33;100.00
13029;BME280;6581;42.662;23.402;2023-01-28T10:03:36;95087.06;;;1.26;100.00
13029;BME280;6581;42.662;23.402;2023-01-28T10:06:15;95086.47;;;1.38;100.00
13029;BME280;6581;42.662;23.402;2023-01-28T10:08:59;95078.13;;;1.18;100.00
13029;BME280;6581;42.662;23.402;2023-01-28T10:11:48;95077.91;;;1.46;100.00
13029;BME280;6581;42.662;23.402;2023-01-28T10:14:24;95088.13;;;1.25;100.00
13029;BME280;6581;42.662;23.402;2023-01-28T10:17:01;95084.75;;;1.33;100.00
13029;BME280;6581;42.662;23.402;2023-01-28T10:19:38;95078.63;;;1.29;100.00
13029;BME280;6581;42.662;23.402;2023-01-28T10:22:12;95077.69;;;1.25;100.00
13029;BME280;6581;42.662;23.402;2023-01-28T10:24:45;95083.50;;;1.22;100.00
13029;BME280;6581;42.662;23.402;2023-01-28T10:27:19;95083.25;;;1.32;100.00
13029;BME280;6581;42.662;23.402;2023-01-28T10:29:48;95080.81;;;1.44;100.00
13029;BME280;6581;42.662;23.402;2023-01-28T10:32:21;95078.69;;;1.72;100.00
13029;BME280;6581;42.662;23.402;2023-01-28T10:34:51;95077.50;;;1.87;100.00
13029;BME280;6581;42.662;23.402;2023-01-28T10:37:18;95068.44;;;2.01;100.00
13029;BME280;6581;42.662;23.402;2023-01-28T10:39:47;95070.56;;;1.73;100.00
13029;BME280;6581;42.662;23.402;2023-01-28T10:42:22;95072.56;;;1.68;100.00
13029;BME280;6581;42.662;23.402;2023-01-28T10:44:55;95082.72;;;1.69;100.00
13029;BME280;6581;42.662;23.402;2023-01-28T10:47:28;95063.19;;;1.67;100.00
13029;BME280;6581;42.662;23.402;2023-01-28T10:49:57;95069.03;;;1.64;100.00
13029;BME280;6581;42.662;23.402;2023-01-28T10:52:25;95063.59;;;1.43;100.00
13029;BME280;6581;42.662;23.402;2023-01-28T10:54:59;95079.25;;;1.43;100.00
13029;BME280;6581;42.662;23.402;2023-01-28T10:57:28;95072.06;;;1.49;100.00
13029;BME280;6581;42.662;23.402;2023-01-28T10:59:55;95067.34;;;1.68;100.00
13029;BME280;6581;42.662;23.402;2023-01-28T11:02:28;95069.03;;;1.90;100.00
13029;BME280;6581;42.662;23.402;2023-01-28T11:05:05;95076.09;;;1.98;100.00
13029;BME280;6581;42.662;23.402;2023-01-28T11:07:34;95072.25;;;2.04;99.95
13029;BME280;6581;42.662;23.402;2023-01-28T11:10:30;95076.09;;;2.23;99.55
13029;BME280;6581;42.662;23.402;2023-01-28T11:13:01;95071.63;;;2.15;99.12
13029;BME280;6581;42.662;23.402;2023-01-28T11:15:28;95078.09;;;2.09;98.51
13029;BME280;6581;42.662;23.402;2023-01-28T11:17:58;95066.13;;;2.00;98.51
13029;BME280;6581;42.662;23.402;2023-01-28T11:20:28;95070.28;;;1.92;98.87
13029;BME280;6581;42.662;23.402;2023-01-28T11:22:59;95063.50;;;2.00;99.63
13029;BME280;6581;42.662;23.402;2023-01-28T11:25:30;95065.34;;;2.08;99.06
13029;BME280;6581;42.662;23.402;2023-01-28T11:28:02;95073.50;;;2.15;98.14
13029;BME280;6581;42.662;23.402;2023-01-28T11:30:32;95069.34;;;2.22;99.06
13029;BME280;6581;42.662;23.402;2023-01-28T11:33:06;95065.63;;;2.06;97.92
13029;BME280;6581;42.662;23.402;2023-01-28T11:35:39;95064.28;;;2.00;98.24
13029;BME280;6581;42.662;23.402;2023-01-28T11:38:17;95068.41;;;2.18;98.81
13029;BME280;6581;42.662;23.402;2023-01-28T11:40:49;95070.25;;;2.27;98.76
13029;BME280;6581;42.662;23.402;2023-01-28T11:43:20;95059.34;;;2.25;97.72
13029;BME280;6581;42.662;23.402;2023-01-28T11:45:55;95057.66;;;1.94;97.93
13029;BME280;6581;42.662;23.402;2023-01-28T11:48:36;95061.34;;;2.02;98.41
13029;BME280;6581;42.662;23.402;2023-01-28T11:51:22;95065.63;;;2.06;97.84
13029;BME280;6581;42.662;23.402;2023-01-28T11:54:02;95063.66;;;2.03;97.82
13029;BME280;6581;42.662;23.402;2023-01-28T11:56:43;95063.50;;;2.00;97.54
13029;BME280;6581;42.662;23.402;2023-01-28T11:59:40;95067.19;;;2.25;98.74
13029;BME280;6581;42.662;23.402;2023-01-28T12:02:23;95063.03;;;2.06;96.60
13029;BME280;6581;42.662;23.402;2023-01-28T12:08:13;95068.88;;;2.12;97.74
13029;BME280;6581;42.662;23.402;2023-01-28T12:10:48;95064.41;;;2.12;96.50
13029;BME280;6581;42.662;23.402;2023-01-28T12:13:29;95064.41;;;2.21;95.95
13029;BME280;6581;42.662;23.402;2023-01-28T12:16:26;95068.25;;;2.06;95.83
13029;BME280;6581;42.662;23.402;2023-01-28T12:19:08;95067.34;;;2.02;96.44
13029;BME280;6581;42.662;23.402;2023-01-28T12:21:49;95068.41;;;2.18;96.91
13029;BME280;6581;42.662;23.402;2023-01-28T12:24:29;95063.66;;;2.12;96.02
13029;BME280;6581;42.662;23.402;2023-01-28T12:27:02;95072.72;;;2.23;96.70
13029;BME280;6581;42.662;23.402;2023-01-28T12:29:40;95064.44;;;2.04;96.26
13029;BME280;6581;42.662;23.402;2023-01-28T12:32:28;95077.03;;;2.19;97.57
13029;BME280;6581;42.662;23.402;2023-01-28T12:35:30;95069.78;;;2.07;97.64
13029;BME280;6581;42.662;23.402;2023-01-28T12:38:07;95067.94;;;2.16;97.40
13029;BME280;6581;42.662;23.402;2023-01-28T12:40:49;95076.09;;;2.32;96.78
13029;BME280;6581;42.662;23.402;2023-01-28T12:43:26;95081.31;;;2.23;95.85
13029;BME280;6581;42.662;23.402;2023-01-28T12:45:57;95080.41;;;2.19;95.47
13029;BME280;6581;42.662;23.402;2023-01-28T12:48:34;95082.25;;;2.10;95.22
13029;BME280;6581;42.662;23.402;2023-01-28T12:51:07;95085.94;;;2.18;96.77
13029;BME280;6581;42.662;23.402;2023-01-28T12:53:40;95085.03;;;2.05;96.10
13029;BME280;6581;42.662;23.402;2023-01-28T12:56:13;95089.34;;;2.01;96.00
13029;BME280;6581;42.662;23.402;2023-01-28T12:58:45;95094.84;;;2.17;95.99
13029;BME280;6581;42.662;23.402;2023-01-28T13:01:18;95089.16;;;2.32;96.39
13029;BME280;6581;42.662;23.402;2023-01-28T13:03:53;95086.22;;;2.51;96.00
13029;BME280;6581;42.662;23.402;2023-01-28T13:06:27;95085.13;;;2.60;95.30
13029;BME280;6581;42.662;23.402;2023-01-28T13:09:00;95088.19;;;2.54;94.42
13029;BME280;6581;42.662;23.402;2023-01-28T13:11:32;95095.44;;;2.48;94.02
13029;BME280;6581;42.662;23.402;2023-01-28T13:14:02;95103.59;;;2.47;93.88
13029;BME280;6581;42.662;23.402;2023-01-28T13:16:55;95106.81;;;2.52;95.11
13029;BME280;6581;42.662;23.402;2023-01-28T13:19:35;95106.03;;;2.60;94.66
13029;BME280;6581;42.662;23.402;2023-01-28T13:22:26;95113.13;;;2.51;93.98
13029;BME280;6581;42.662;23.402;2023-01-28T13:24:54;95108.66;;;2.43;92.95
13029;BME280;6581;42.662;23.402;2023-01-28T13:27:23;95103.00;;;2.33;93.10
13029;BME280;6581;42.662;23.402;2023-01-28T13:30:01;95114.81;;;2.39;93.64
13029;BME280;6581;42.662;23.402;2023-01-28T13:32:31;95112.53;;;2.29;93.68
13029;BME280;6581;42.662;23.402;2023-01-28T13:35:04;95114.22;;;2.33;93.94
13029;BME280;6581;42.662;23.402;2023-01-28T13:37:33;95116.69;;;2.21;93.96
13029;BME280;6581;42.662;23.402;2023-01-28T13:40:07;95125.13;;;2.27;94.65